KROX/ROX METAR and TAF weather

Enter ICAO airport designator
Station Type Date Time Source
KROX METAR 2019/04/24 22:43 UTC NOAA

KROX 242243Z AUTO 31011G17KT 10SM SCT090 21/01 A2963 RMK AO2


Station Type Date Time Source
KROX Decoded METAR 2019/04/24 22:43 UTC NOAA

Roseau, Roseau Municipal Airport/Rudy Billberg Field, MN, United States (KROX) 48-51N 095-42W
Apr 24, 2019 - 06:43 PM EDT / 2019.04.24 2243 UTC
Wind: from the NW (310 degrees) at 13 MPH (11 KT) gusting to 20 MPH (17 KT):0
Visibility: 10 mile(s):0
Sky conditions: partly cloudy
Temperature: 69 F (21 C)
Dew Point: 33 F (1 C)
Relative Humidity: 26%
Pressure (altimeter): 29.63 in. Hg (1003 hPa)
ob: KROX 242243Z AUTO 31011G17KT 10SM SCT090 21/01 A2963 RMK AO2
cycle: 22

Station Type Date Time Source
KROX TAF UTC NOAA

Error!

Example: see airport list